createdAt,value
2018-07-17T00:01:11.355Z,2.72
2018-07-17T00:06:15.618Z,2.87
2018-07-17T00:11:19.394Z,2.52
2018-07-17T00:16:23.187Z,2.70
2018-07-17T00:21:27.166Z,2.62
2018-07-17T00:26:30.672Z,3.05
2018-07-17T00:31:34.517Z,2.70
2018-07-17T00:36:38.081Z,2.98
2018-07-17T00:41:41.571Z,2.98
2018-07-17T00:46:45.070Z,3.60
2018-07-17T00:51:48.738Z,3.40
2018-07-17T00:56:52.231Z,3.60
2018-07-17T01:02:00.976Z,3.30
2018-07-17T01:07:09.893Z,3.25
2018-07-17T01:12:13.413Z,3.08
2018-07-17T01:17:17.986Z,3.83
2018-07-17T01:22:21.551Z,3.27
2018-07-17T01:27:25.111Z,3.27
2018-07-17T01:32:28.645Z,3.02
2018-07-17T01:37:32.418Z,3.52
2018-07-17T01:42:36.042Z,3.42
2018-07-17T01:47:39.527Z,3.08
2018-07-17T01:52:43.147Z,3.20
2018-07-17T01:57:46.709Z,3.40
2018-07-17T02:02:50.403Z,3.70
2018-07-17T02:07:53.921Z,2.92
2018-07-17T02:12:57.498Z,3.17
2018-07-17T02:18:00.975Z,3.10
2018-07-17T02:23:04.726Z,3.42
2018-07-17T02:28:08.365Z,3.00
2018-07-17T02:33:11.867Z,3.58
2018-07-17T02:38:15.398Z,3.90
2018-07-17T02:43:19.026Z,3.70
2018-07-17T02:48:22.823Z,3.30
2018-07-17T02:53:26.406Z,3.70
2018-07-17T02:58:30.781Z,3.00
2018-07-17T03:03:34.263Z,3.22
2018-07-17T03:08:37.765Z,3.20
2018-07-17T03:13:41.302Z,3.40
2018-07-17T03:18:44.807Z,3.62
2018-07-17T03:23:48.314Z,3.22
2018-07-17T03:28:52.105Z,3.55
2018-07-17T03:33:55.883Z,3.60
2018-07-17T03:38:59.417Z,3.45
2018-07-17T03:44:03.108Z,3.80
2018-07-17T03:49:07.041Z,3.37
2018-07-17T03:54:10.646Z,3.65
2018-07-17T03:59:14.198Z,3.50
2018-07-17T04:04:17.885Z,3.27
2018-07-17T04:09:21.370Z,3.90
2018-07-17T04:14:24.828Z,3.98
2018-07-17T04:19:28.410Z,3.50
2018-07-17T04:24:31.993Z,3.52
2018-07-17T04:29:35.527Z,4.40
2018-07-17T04:34:39.390Z,4.78
2018-07-17T04:39:42.986Z,4.08
2018-07-17T04:44:46.506Z,4.50
2018-07-17T04:49:50.140Z,4.22
2018-07-17T04:54:54.043Z,4.40
2018-07-17T04:59:57.666Z,5.08
2018-07-17T05:05:04.338Z,4.42
2018-07-17T05:10:08.136Z,4.60
2018-07-17T05:15:11.929Z,5.15
2018-07-17T05:20:15.665Z,5.60
2018-07-17T05:25:19.082Z,5.93
2018-07-17T05:30:22.763Z,5.60
2018-07-17T05:35:26.893Z,5.65
2018-07-17T05:40:31.177Z,4.90
2018-07-17T05:45:34.872Z,6.12
2018-07-17T05:50:38.361Z,6.50
2018-07-17T05:55:41.976Z,5.45
2018-07-17T06:00:45.652Z,5.30
2018-07-17T06:05:49.225Z,4.83
2018-07-17T06:10:52.838Z,5.10
2018-07-17T06:15:56.772Z,5.65
2018-07-17T06:21:00.396Z,5.75
2018-07-17T06:26:04.315Z,5.15
2018-07-17T06:31:07.882Z,4.78
2018-07-17T06:36:12.395Z,5.62
2018-07-17T06:41:15.947Z,5.33
2018-07-17T06:46:19.597Z,4.97
2018-07-17T06:51:23.129Z,5.12
2018-07-17T06:56:27.126Z,4.40
2018-07-17T07:01:30.724Z,4.35
2018-07-17T07:06:34.278Z,4.85
2018-07-17T07:11:38.326Z,4.12
2018-07-17T07:16:42.334Z,4.85
2018-07-17T07:21:45.806Z,4.28
2018-07-17T07:26:49.406Z,4.87
2018-07-17T07:31:55.301Z,4.60
2018-07-17T07:36:59.497Z,4.55
2018-07-17T07:42:04.233Z,3.87
2018-07-17T07:47:08.505Z,4.45
2018-07-17T07:52:12.742Z,3.37
2018-07-17T07:57:17.434Z,3.80
2018-07-17T08:02:22.058Z,4.33
2018-07-17T08:07:26.438Z,3.67
2018-07-17T08:12:31.195Z,3.33
2018-07-17T08:17:35.520Z,2.90
2018-07-17T08:22:39.888Z,2.92
2018-07-17T08:27:45.518Z,3.10
2018-07-17T08:32:49.980Z,2.85
2018-07-17T08:37:57.885Z,3.17
2018-07-17T08:43:02.115Z,3.20
2018-07-17T08:48:06.007Z,3.40
2018-07-17T08:53:10.336Z,3.17
2018-07-17T08:58:14.940Z,3.05
2018-07-17T09:03:19.415Z,2.83
2018-07-17T09:08:24.170Z,3.08
2018-07-17T09:13:28.322Z,2.80
2018-07-17T09:18:32.757Z,2.98
2018-07-17T09:23:37.371Z,3.10
2018-07-17T09:28:42.626Z,2.80
2018-07-17T09:33:46.855Z,2.83
2018-07-17T09:38:51.001Z,2.55
2018-07-17T09:43:55.379Z,2.67
2018-07-17T09:48:59.885Z,2.70
2018-07-17T09:54:04.014Z,2.58
2018-07-17T09:59:09.311Z,2.95
2018-07-17T10:04:15.580Z,3.20
2018-07-17T10:09:20.014Z,3.10
2018-07-17T10:14:25.059Z,2.60
2018-07-17T10:19:29.343Z,2.55
2018-07-17T10:24:33.550Z,3.02
2018-07-17T10:29:38.030Z,2.47
2018-07-17T10:34:42.430Z,2.45
2018-07-17T10:39:46.486Z,2.60
2018-07-17T10:44:50.549Z,3.02
2018-07-17T10:49:54.785Z,2.90
2018-07-17T10:54:59.561Z,3.08
2018-07-17T11:00:08.581Z,3.00
2018-07-17T11:05:13.836Z,2.36
2018-07-17T11:10:18.377Z,2.40
2018-07-17T11:15:22.351Z,2.40
2018-07-17T11:20:26.210Z,2.13
2018-07-17T11:25:30.746Z,2.20
2018-07-17T11:30:34.985Z,1.92
2018-07-17T11:35:39.192Z,1.75
2018-07-17T11:40:44.059Z,2.00
2018-07-17T11:45:48.779Z,2.05
2018-07-17T11:50:53.049Z,1.90
2018-07-17T11:55:57.955Z,2.00
2018-07-17T12:01:01.621Z,2.00
2018-07-17T12:06:05.341Z,2.05
2018-07-17T12:11:09.324Z,1.90
2018-07-17T12:16:13.589Z,2.02
2018-07-17T12:21:17.437Z,1.90
2018-07-17T12:26:21.972Z,1.65
2018-07-17T12:31:26.086Z,1.60
2018-07-17T12:36:29.909Z,1.53
2018-07-17T12:41:34.217Z,1.40
2018-07-17T12:46:38.347Z,1.55
2018-07-17T12:51:42.478Z,1.40
2018-07-17T12:56:46.845Z,1.70
2018-07-17T13:01:50.716Z,1.50
2018-07-17T13:06:55.562Z,1.62
2018-07-17T13:11:59.628Z,1.70
2018-07-17T13:17:04.386Z,1.35
2018-07-17T13:22:09.317Z,1.52
2018-07-17T13:27:13.412Z,1.77
2018-07-17T13:32:17.563Z,1.40
2018-07-17T13:37:22.251Z,1.60
2018-07-17T13:42:26.670Z,1.73
2018-07-17T13:47:30.649Z,1.70
2018-07-17T13:52:35.036Z,2.00
2018-07-17T13:57:38.691Z,1.93
2018-07-17T14:02:42.530Z,1.70
2018-07-17T14:07:46.660Z,2.00
2018-07-17T14:12:50.919Z,1.90
2018-07-17T14:17:55.825Z,1.80
2018-07-17T14:23:00.361Z,1.75
2018-07-17T14:28:04.234Z,1.95
2018-07-17T14:33:08.379Z,2.15
2018-07-17T14:38:12.506Z,1.98
2018-07-17T14:43:16.914Z,1.87
2018-07-17T14:48:22.104Z,1.80
2018-07-17T14:53:28.503Z,1.98
2018-07-17T14:58:32.646Z,2.00
2018-07-17T15:03:37.858Z,1.90
2018-07-17T15:08:42.822Z,1.80
2018-07-17T15:13:46.919Z,1.50
2018-07-17T15:18:51.282Z,1.40
2018-07-17T15:23:55.071Z,1.45
2018-07-17T15:28:59.073Z,1.60
2018-07-17T15:34:03.209Z,1.53
2018-07-17T15:39:10.135Z,1.72
2018-07-17T15:44:14.548Z,1.80
2018-07-17T15:49:18.679Z,1.75
2018-07-17T15:54:23.137Z,2.02
2018-07-17T15:59:27.542Z,1.57
2018-07-17T16:04:31.819Z,1.70
2018-07-17T16:09:36.652Z,1.67
2018-07-17T16:14:44.396Z,1.70
2018-07-17T16:19:48.615Z,2.25
2018-07-17T16:24:53.344Z,2.40
2018-07-17T16:29:57.740Z,1.70
2018-07-17T16:35:07.859Z,1.60
2018-07-17T16:40:12.184Z,1.55
2018-07-17T16:45:16.374Z,1.90
2018-07-17T16:50:20.674Z,1.85
2018-07-17T16:55:25.458Z,2.33
2018-07-17T17:00:29.382Z,1.80
2018-07-17T17:05:33.405Z,1.95
2018-07-17T17:10:37.430Z,1.70
2018-07-17T17:15:41.414Z,1.50
2018-07-17T17:20:45.583Z,1.65
2018-07-17T17:25:50.042Z,2.00
2018-07-17T17:30:55.642Z,2.05
2018-07-17T17:35:59.543Z,1.87
2018-07-17T17:41:03.348Z,2.02
2018-07-17T17:46:08.043Z,2.00
2018-07-17T17:51:12.120Z,2.20
2018-07-17T17:56:17.623Z,2.22
2018-07-17T18:01:21.901Z,2.10
2018-07-17T18:06:26.470Z,2.33
2018-07-17T18:11:30.105Z,2.52
2018-07-17T18:16:33.786Z,3.00
2018-07-17T18:21:37.268Z,3.02
2018-07-17T18:26:40.990Z,3.50
2018-07-17T18:31:44.491Z,3.17
2018-07-17T18:36:48.157Z,3.02
2018-07-17T18:41:52.052Z,3.20
2018-07-17T18:46:55.702Z,3.00
2018-07-17T18:51:59.287Z,2.67
2018-07-17T18:57:02.984Z,2.40
2018-07-17T19:02:06.810Z,2.62
2018-07-17T19:07:10.458Z,2.40
2018-07-17T19:12:14.073Z,2.62
2018-07-17T19:17:17.708Z,2.67
2018-07-17T19:22:21.405Z,2.60
2018-07-17T19:27:24.980Z,2.70
2018-07-17T19:32:28.611Z,3.12
2018-07-17T19:37:32.269Z,2.83
2018-07-17T19:42:35.881Z,3.00
2018-07-17T19:47:39.380Z,2.72
2018-07-17T19:52:43.104Z,2.98
2018-07-17T19:57:46.578Z,3.22
2018-07-17T20:02:50.254Z,3.08
2018-07-17T20:07:53.754Z,2.87
2018-07-17T20:12:57.383Z,2.65
2018-07-17T20:18:01.186Z,2.72
2018-07-17T20:23:04.978Z,2.95
2018-07-17T20:28:08.653Z,2.95
2018-07-17T20:33:12.195Z,2.80
2018-07-17T20:38:15.794Z,2.65
2018-07-17T20:43:19.225Z,2.92
2018-07-17T20:48:23.551Z,3.12
2018-07-17T20:53:27.149Z,2.90
2018-07-17T20:58:30.872Z,3.72
2018-07-17T21:03:34.546Z,2.95
2018-07-17T21:08:38.285Z,3.15
2018-07-17T21:13:41.862Z,2.80
2018-07-17T21:18:45.645Z,3.00
2018-07-17T21:23:49.401Z,2.37
2018-07-17T21:28:53.766Z,2.92
2018-07-17T21:33:57.366Z,2.40
2018-07-17T21:39:01.009Z,2.47
2018-07-17T21:44:04.692Z,2.90
2018-07-17T21:49:08.225Z,3.30
2018-07-17T21:54:12.002Z,2.67
2018-07-17T21:59:15.575Z,3.33
2018-07-17T22:04:19.642Z,3.58
2018-07-17T22:09:23.390Z,3.60
2018-07-17T22:14:27.061Z,3.05
2018-07-17T22:19:30.546Z,3.77
2018-07-17T22:24:34.221Z,3.50
2018-07-17T22:29:37.736Z,3.42
2018-07-17T22:34:41.306Z,3.50
2018-07-17T22:39:44.859Z,3.75
2018-07-17T22:44:48.366Z,3.52
2018-07-17T22:49:51.965Z,3.77
2018-07-17T22:54:55.479Z,3.75
2018-07-17T22:59:59.041Z,3.72
2018-07-17T23:05:02.970Z,4.20
2018-07-17T23:10:07.469Z,4.10
2018-07-17T23:15:11.443Z,4.20
2018-07-17T23:20:14.965Z,4.00
2018-07-17T23:25:19.164Z,3.97
2018-07-17T23:30:22.715Z,3.97
2018-07-17T23:35:26.638Z,3.90
2018-07-17T23:40:30.410Z,3.80
2018-07-17T23:45:34.779Z,3.60
2018-07-17T23:50:38.341Z,3.87
2018-07-17T23:55:42.098Z,4.03
